createdAt,value
2023-01-08T00:02:00.906Z,100.00
2023-01-08T00:07:06.904Z,100.00
2023-01-08T00:12:12.643Z,100.00
2023-01-08T00:17:18.748Z,100.00
2023-01-08T00:22:24.739Z,100.00
2023-01-08T00:27:30.453Z,100.00
2023-01-08T00:32:36.327Z,100.00
2023-01-08T00:37:42.318Z,100.00
2023-01-08T00:42:48.439Z,100.00
2023-01-08T00:47:54.282Z,100.00
2023-01-08T00:53:00.932Z,100.00
2023-01-08T00:58:06.746Z,100.00
2023-01-08T01:03:12.927Z,100.00
2023-01-08T01:08:18.832Z,100.00
2023-01-08T01:13:24.939Z,100.00
2023-01-08T01:18:31.222Z,100.00
2023-01-08T01:23:37.098Z,100.00
2023-01-08T01:28:43.049Z,100.00
2023-01-08T01:33:48.808Z,100.00
2023-01-08T01:38:56.442Z,100.00
2023-01-08T01:44:42.347Z,100.00
2023-01-08T01:49:56.402Z,100.00
2023-01-08T01:55:03.292Z,100.00
2023-01-08T02:00:11.251Z,100.00
2023-01-08T02:05:23.146Z,100.00
2023-01-08T02:10:39.311Z,100.00
2023-01-08T02:15:55.775Z,100.00
2023-01-08T02:21:07.664Z,100.00
2023-01-08T02:26:26.559Z,100.00
2023-01-08T02:31:35.589Z,100.00
2023-01-08T02:36:43.689Z,100.00
2023-01-08T02:42:01.932Z,100.00
2023-01-08T02:47:12.163Z,100.00
2023-01-08T02:52:19.748Z,100.00
2023-01-08T02:57:26.806Z,100.00
2023-01-08T03:02:36.140Z,100.00
2023-01-08T03:07:42.144Z,100.00
2023-01-08T03:12:55.956Z,100.00
2023-01-08T03:18:07.577Z,100.00
2023-01-08T03:23:16.257Z,100.00
2023-01-08T03:28:30.206Z,100.00
2023-01-08T03:33:38.120Z,100.00
2023-01-08T03:38:50.933Z,100.00
2023-01-08T03:43:57.473Z,100.00
2023-01-08T03:49:05.318Z,100.00
2023-01-08T03:54:14.745Z,100.00
2023-01-08T03:59:20.407Z,100.00
2023-01-08T04:04:26.458Z,100.00
2023-01-08T04:09:32.312Z,100.00
2023-01-08T04:14:37.934Z,100.00
2023-01-08T04:19:43.785Z,100.00
2023-01-08T04:24:49.495Z,100.00
2023-01-08T04:29:55.353Z,100.00
2023-01-08T04:35:01.280Z,100.00
2023-01-08T04:40:09.359Z,100.00
2023-01-08T04:45:15.298Z,100.00
2023-01-08T04:50:21.444Z,100.00
2023-01-08T04:55:27.502Z,100.00
2023-01-08T05:00:33.519Z,100.00
2023-01-08T05:05:39.367Z,100.00
2023-01-08T05:10:45.186Z,100.00
2023-01-08T05:15:51.198Z,100.00
2023-01-08T05:20:59.605Z,100.00
2023-01-08T05:26:06.820Z,100.00
2023-01-08T05:31:13.022Z,100.00
2023-01-08T05:36:19.592Z,100.00
2023-01-08T05:50:09.193Z,100.00
2023-01-08T05:55:15.223Z,100.00
2023-01-08T06:00:21.892Z,100.00
2023-01-08T06:05:29.357Z,100.00
2023-01-08T06:10:35.322Z,100.00
2023-01-08T06:15:41.597Z,100.00
2023-01-08T06:20:47.517Z,100.00
2023-01-08T06:25:56.464Z,100.00
2023-01-08T06:31:03.753Z,100.00
2023-01-08T06:36:11.156Z,100.00
2023-01-08T06:41:18.047Z,100.00
2023-01-08T06:46:24.186Z,100.00
2023-01-08T06:51:31.012Z,100.00
2023-01-08T06:56:52.373Z,100.00
2023-01-08T07:01:59.657Z,100.00
2023-01-08T07:07:05.913Z,100.00
2023-01-08T07:12:14.894Z,100.00
2023-01-08T07:17:21.895Z,100.00
2023-01-08T07:22:29.609Z,100.00
2023-01-08T07:27:36.555Z,100.00
2023-01-08T07:32:42.932Z,100.00
2023-01-08T07:37:49.811Z,100.00
2023-01-08T07:43:03.359Z,100.00
2023-01-08T07:48:16.576Z,100.00
2023-01-08T07:53:23.343Z,100.00
2023-01-08T07:58:30.148Z,100.00
2023-01-08T08:03:36.118Z,100.00
2023-01-08T08:08:43.110Z,100.00
2023-01-08T08:13:53.058Z,100.00
2023-01-08T08:19:01.033Z,100.00
2023-01-08T08:24:08.735Z,100.00
2023-01-08T08:29:15.489Z,100.00
2023-01-08T08:34:22.679Z,100.00
2023-01-08T08:39:34.577Z,100.00
2023-01-08T08:44:42.947Z,100.00
2023-01-08T08:49:50.860Z,100.00
2023-01-08T08:54:58.068Z,100.00
2023-01-08T09:00:05.500Z,100.00
2023-01-08T09:05:12.466Z,100.00
2023-01-08T09:10:18.930Z,100.00
2023-01-08T09:15:24.748Z,100.00
2023-01-08T09:20:32.056Z,100.00
2023-01-08T09:25:38.565Z,100.00
2023-01-08T09:30:45.066Z,100.00
2023-01-08T09:35:51.325Z,100.00
2023-01-08T09:41:03.866Z,100.00
2023-01-08T09:46:12.089Z,99.99
2023-01-08T09:51:20.776Z,100.00
2023-01-08T09:56:28.375Z,100.00
2023-01-08T10:01:38.431Z,99.79
2023-01-08T10:06:51.148Z,99.33
2023-01-08T10:12:00.616Z,98.76
2023-01-08T10:17:20.929Z,98.39
2023-01-08T10:22:34.124Z,97.79
2023-01-08T10:27:48.702Z,97.16
2023-01-08T10:32:56.481Z,96.49
2023-01-08T10:38:03.327Z,96.03
2023-01-08T10:43:14.442Z,95.87
2023-01-08T10:48:19.452Z,95.38
2023-01-08T10:53:30.921Z,94.23
2023-01-08T10:58:45.055Z,94.20
2023-01-08T11:03:55.849Z,94.52
2023-01-08T11:09:04.767Z,94.84
2023-01-08T11:14:21.896Z,94.89
2023-01-08T11:19:34.043Z,94.26
2023-01-08T11:24:42.409Z,93.44
2023-01-08T11:29:57.728Z,93.20
2023-01-08T11:35:10.267Z,93.08
2023-01-08T11:40:28.286Z,93.39
2023-01-08T11:45:50.107Z,93.39
2023-01-08T11:51:19.040Z,93.19
2023-01-08T11:56:38.839Z,93.12
2023-01-08T12:01:55.628Z,93.19
2023-01-08T12:07:11.628Z,93.52
2023-01-08T12:12:33.591Z,93.54
2023-01-08T12:18:04.604Z,93.81
2023-01-08T12:23:33.192Z,93.65
2023-01-08T12:29:09.446Z,93.70
2023-01-08T12:34:20.782Z,93.29
2023-01-08T12:39:33.886Z,92.85
2023-01-08T12:44:41.111Z,92.75
2023-01-08T12:50:00.287Z,92.87
2023-01-08T12:55:17.504Z,93.01
2023-01-08T13:00:34.249Z,93.16
2023-01-08T13:05:42.203Z,93.35
2023-01-08T13:10:54.381Z,93.60
2023-01-08T13:16:20.044Z,93.76
2023-01-08T13:21:42.822Z,93.82
2023-01-08T13:26:49.481Z,94.25
2023-01-08T13:31:57.463Z,94.52
2023-01-08T13:37:03.641Z,94.51
2023-01-08T13:42:25.072Z,94.59
2023-01-08T13:47:35.673Z,94.56
2023-01-08T13:52:46.121Z,94.85
2023-01-08T13:57:58.162Z,94.96
2023-01-08T14:03:06.051Z,95.19
2023-01-08T14:08:24.115Z,95.85
2023-01-08T14:13:34.372Z,96.01
2023-01-08T14:18:43.277Z,96.18
2023-01-08T14:23:54.098Z,96.33
2023-01-08T14:29:02.401Z,96.52
2023-01-08T14:34:10.636Z,96.82
2023-01-08T14:39:24.944Z,96.92
2023-01-08T14:44:38.056Z,97.34
2023-01-08T14:49:52.615Z,97.67
2023-01-08T14:55:03.230Z,97.71
2023-01-08T15:00:19.304Z,97.79
2023-01-08T15:05:29.789Z,97.92
2023-01-08T15:10:39.116Z,98.01
2023-01-08T15:15:56.433Z,98.04
2023-01-08T15:21:02.811Z,98.21
2023-01-08T15:26:13.847Z,98.16
2023-01-08T15:31:27.853Z,98.06
2023-01-08T15:36:33.789Z,98.14
2023-01-08T15:41:59.022Z,98.10
2023-01-08T15:47:08.367Z,97.94
2023-01-08T15:52:14.568Z,98.00
2023-01-08T15:57:23.097Z,98.11
2023-01-08T16:02:28.987Z,98.10
2023-01-08T16:07:34.821Z,98.20
2023-01-08T16:12:40.613Z,98.11
2023-01-08T16:17:46.891Z,97.84
2023-01-08T16:22:57.844Z,97.75
2023-01-08T16:28:05.291Z,97.97
2023-01-08T16:33:11.440Z,97.99
2023-01-08T16:38:19.555Z,98.01
2023-01-08T16:43:25.976Z,98.18
2023-01-08T16:48:31.806Z,97.97
2023-01-08T16:53:37.967Z,98.05
2023-01-08T16:58:43.781Z,98.29
2023-01-08T17:03:49.776Z,98.37
2023-01-08T17:08:58.179Z,98.31
2023-01-08T17:14:04.085Z,98.40
2023-01-08T17:19:10.201Z,98.49
2023-01-08T17:24:16.281Z,98.15
2023-01-08T17:29:23.406Z,98.24
2023-01-08T17:34:29.157Z,98.53
2023-01-08T17:39:34.936Z,98.48
2023-01-08T17:44:40.759Z,98.53
2023-01-08T17:49:48.703Z,98.62
2023-01-08T17:54:54.929Z,98.72
2023-01-08T18:00:00.821Z,98.81
2023-01-08T18:05:09.585Z,98.97
2023-01-08T18:10:15.935Z,99.03
2023-01-08T18:15:21.965Z,99.13
2023-01-08T18:20:27.962Z,99.07
2023-01-08T18:25:33.904Z,98.91
2023-01-08T18:30:39.584Z,99.06
2023-01-08T18:35:45.280Z,99.23
2023-01-08T18:40:53.388Z,99.36
2023-01-08T18:46:01.798Z,99.37
2023-01-08T18:51:08.087Z,99.46
2023-01-08T18:56:17.971Z,99.51
2023-01-08T19:01:24.411Z,99.74
2023-01-08T19:06:30.659Z,99.58
2023-01-08T19:11:36.602Z,99.66
2023-01-08T19:16:48.369Z,99.80
2023-01-08T19:21:54.541Z,99.79
2023-01-08T19:27:00.443Z,99.86
2023-01-08T19:32:07.625Z,99.78
2023-01-08T19:37:14.875Z,99.71
2023-01-08T19:42:41.270Z,99.83
2023-01-08T19:47:47.480Z,99.99
2023-01-08T19:52:53.321Z,99.94
2023-01-08T19:58:00.127Z,100.00
2023-01-08T20:03:06.560Z,99.97
2023-01-08T20:08:12.680Z,99.96
2023-01-08T20:13:19.452Z,99.95
2023-01-08T20:18:25.118Z,99.91
2023-01-08T20:23:31.093Z,99.97
2023-01-08T20:28:39.157Z,99.98
2023-01-08T20:33:46.438Z,99.98
2023-01-08T20:38:54.907Z,100.00
2023-01-08T20:44:03.675Z,100.00
2023-01-08T20:49:13.303Z,100.00
2023-01-08T20:54:19.160Z,100.00
2023-01-08T20:59:25.576Z,100.00
2023-01-08T21:04:31.525Z,100.00
2023-01-08T21:09:39.569Z,100.00
2023-01-08T21:14:46.145Z,100.00
2023-01-08T21:19:52.231Z,100.00
2023-01-08T21:24:57.947Z,100.00
2023-01-08T21:30:04.332Z,100.00
2023-01-08T21:35:10.636Z,100.00
2023-01-08T21:40:17.043Z,100.00
2023-01-08T21:45:26.036Z,100.00
2023-01-08T21:50:32.073Z,100.00
2023-01-08T21:55:37.877Z,100.00
2023-01-08T22:03:30.862Z,100.00
2023-01-08T22:08:36.889Z,100.00
2023-01-08T22:13:42.613Z,100.00
2023-01-08T22:18:48.399Z,100.00
2023-01-08T22:23:55.133Z,100.00
2023-01-08T22:29:04.020Z,100.00
2023-01-08T22:34:13.264Z,100.00
2023-01-08T22:39:19.350Z,100.00
2023-01-08T22:44:25.225Z,100.00
2023-01-08T22:49:31.203Z,100.00
2023-01-08T22:54:39.035Z,100.00
2023-01-08T22:59:44.918Z,100.00
2023-01-08T23:04:52.876Z,100.00
2023-01-08T23:09:58.572Z,100.00
2023-01-08T23:15:06.098Z,100.00
2023-01-08T23:20:15.010Z,100.00
2023-01-08T23:25:21.164Z,100.00
2023-01-08T23:30:31.449Z,100.00
2023-01-08T23:35:37.211Z,100.00
2023-01-08T23:40:45.263Z,100.00
2023-01-08T23:45:51.361Z,100.00
2023-01-08T23:50:57.189Z,100.00
2023-01-08T23:56:03.085Z,100.00
